the time You need

Milano Marittima MTB

Milano Marittima, Ravenna   Italy

domenica 22 febbraio 2015

Percorsi

LUNGO - 32.0 Km

 

CORTO - 15.0 Km

Servizi

ADSCOSTPunti KS Ranking

Chip

Circuiti

Mare e CollineRomagna Bike CupTrofeo dei Lidi

Ente

FCI

CLASSIFICA

LUNGO - 32.0 Km

Pos Atleta Sesso Cat PosC Team Tempo Media RTime
1 SAMBI CHRISTIAN M M2 1 ASD SAMBI TEAM 01:03:46.37 30,11 01:03:46.37
2 DE LORENZI ENRICO M M1 1 ASD OSTERIA 01:04:08.38 29,94 01:04:08.38
3 VALENTINI STEFANO M M2 2 180 BPM 01:04:13.12 29,90 01:04:13.12
4 VENTURINI MIRKO M M2 3 BD FAST 01:04:20.63 29,84 01:04:20.63
5 GALAMINI MAURIZIO M M5 1 ROMAGNA BIKE GRANDI EVENTI 01:04:24.63 29,81 01:04:24.63
6 FABBRI CHRISTIAN M M3 1 TEAM PASSION FAENTINA 01:04:32.37 29,75 01:04:32.37
7 ZAMA LORENZO M M1 2 TEAM PASSION FAENTINA 01:04:41.12 29,68 01:04:41.12
8 PRATI ETTORE M M3 2 ASD GREEN DEVILS 01:04:42.37 29,68 01:04:42.37
9 LEONI GERMANO M M4 1 TEAM PASSION FAENTINA 01:04:44.88 29,66 01:04:44.88
10 ALEOTTI NICOLA M M3 3 TEAM SESSANTALLORA 01:04:51.87 29,61 01:04:51.87
11 RUFFILI PAOLO M M2 4 SPACCO ASD 01:04:55.38 29,58 01:04:55.38
12 BOVINO MARIO M M4 2 KTM FORTI E LIBERI 01:04:57.63 29,56 01:04:57.63
13 MANIGRASSO GIOVANNI M M4 3 ASD ONLYOFF DUE RUOTE 01:04:57.75 29,56 01:04:57.75
14 PELLEGRINO PARIDE M M3 4 TEAM TORPEDO BIKE 01:04:59.13 29,55 01:04:59.13
15 ZOLI MATTIA M ELMT 1 SC VELOCIRAPTOR 01:05:02.13 29,52 01:05:02.13
16 CANESTRINI GIACOMO M M2 5 SPACCO ASD 01:05:03.13 29,52 01:05:03.13
17 FERRARI ENRICO M M1 3 SPACCO ASD 01:05:04.38 29,51 01:05:04.38
18 BIANCHI DAMIANO M M2 6 SPACCO ASD 01:05:10.38 29,46 01:05:10.38
19 BRASINI ALESSANDRO M ELMT 2 TEAM SOLO BICI FORLI´ 01:05:13.86 29,44 01:05:13.86
20 MURATORI GIAMPAOLO M M4 4 GRUPPO TNT 01:05:15.13 29,43 01:05:15.13
21 POLVERINO ANDREA M M1 4 KTM FORTI E LIBERI 01:05:17.13 29,41 01:05:17.13
22 PASINI GIOVANNI M M3 5 KTM FORTI E LIBERI 01:05:17.88 29,41 01:05:17.88
23 GUGLIELMI THOMAS M M2 7 SPACCO ASD 01:05:20.13 29,39 01:05:20.13
24 CAVICCHI CRISTIAN M M3-2 1 POL. YOUNG LINE 01:05:20.49 29,39 01:05:20.49
25 PRETOLANI TIBERIO M M5 2 GS TORPADO SURFING SHOP SPORT PROMOTION 01:05:21.49 29,38 01:05:21.49
26 CERONI MAURIZIO M M6 1 ASD IMOLA BIKE 01:05:28.38 29,33 01:05:28.38
27 ZANIBONI ROBERTO M M5 3 POL. YOUNG LINE 01:05:28.88 29,33 01:05:28.88
28 GHERARDI ALESSANDRO M ELMT 3 SALIMBICI BIKE TEAM RUOTE 01:05:29.37 29,32 01:05:29.37
29 SARTONI SAURO M M4 5 ASD SAMBI TEAM 01:05:32.11 29,30 01:05:32.11
30 CALDERONI DAVIDE M M2 8 ASD SAMBI TEAM 01:05:34.37 29,28 01:05:34.37
31 BRUNETTI MARCO M ELMT 4 ROCK RACING 01:05:34.39 29,28 01:05:34.39
32 MILETI GIUSEPPE M ELMT 5 SALIMBICI BIKE TEAM RUOTE 01:05:36.49 29,27 01:05:36.49
33 BRIGANTI GIANNI M M5 4 180 BPM 01:05:37.88 29,26 01:05:37.88
34 FABBRI DOMENICO M M5 5 ROMAGNA BIKE GRANDI EVENTI 01:05:41.88 29,23 01:05:41.88
35 BARTOLETTI LUCA M M4-2 1 KTM FORTI E LIBERI 01:05:44.88 29,21 01:05:44.88
36 GENTILI ETTORE M M4 6 ASD SAMBI TEAM 01:05:49.88 29,17 01:05:49.88
37 ZANCHINI FABIO M M4 7 TEAM PASSION FAENTINA 01:05:50.38 29,16 01:05:50.38
38 CIMINIELLO FABIO M M1 5 ASD SAMBI TEAM 01:05:53.87 29,14 01:05:53.87
39 MARANI RICCARDO M M2 9 TEAM PASSION FAENTINA 01:05:56.88 29,12 01:05:56.88
40 BRACCIAROLI LUCA M ELMT 6 GRUPPO TNT 01:05:57.38 29,11 01:05:57.38
41 BABINI FABIO M M3 6 TEAM PASSION FAENTINA 01:05:58.88 29,11 01:05:58.88
42 PRUNI PAOLO M M4 8 KTM FORTI E LIBERI 01:05:59.38 29,10 01:05:59.38
43 BRUNELLI ENRICO M M2 10 GRUPPO TNT 01:06:00.86 29,09 01:06:00.86
44 MEDRI FRANCESCO M M5 6 ROMAGNA BIKE GRANDI EVENTI 01:06:01.88 29,08 01:06:01.88
45 SOVERA ALESSIO M M3 7 SALIMBICI BIKE TEAM RUOTE 01:06:07.88 29,04 01:06:07.88
46 MELESI MICHELE M M3 8 ASD GREEN DEVILS 01:06:09.49 29,02 01:06:09.49
47 CHIARUCCI FABRIZIO M M6 2 ASD SAMBI TEAM 01:06:10.88 29,02 01:06:10.88
48 CAVALLARI ALESSANDRO M M1 6 TEAM SPARROW 01:06:13.13 29,00 01:06:13.13
49 FABBRI DAVIDE M M3 9 ASD H3O RACE TEAM 01:06:19.88 28,95 01:06:19.88
50 MAGRINI STEFANO M M6 3 SC VELOCIRAPTOR 01:06:24.38 28,92 01:06:24.38
51 BURZACCA ANDREA M M5 7 GS TORPADO SURFING SHOP SPORT PROMOTION 01:06:24.88 28,92 01:06:24.88
52 TASSINARI ALBERTO M ELMT 7 ASD OTW RAVENNA 01:06:33.38 28,85 01:06:33.38
53 PREDIERI GIACOMO M M7 1 BAMBANA BIKE 01:06:37.88 28,82 01:06:37.88
54 FIORINI FABIO M M4 9 ASD TEAM ENDURANCE 01:06:40.38 28,80 01:06:40.38
55 VANUZZO IURI M M2 11 ASD SAMBI TEAM 01:06:42.63 28,79 01:06:42.63
56 BECCI MORENO M M6 4 GRUPPO TNT 01:06:52.37 28,71 01:06:52.37
57 TAIBI FILIPPO M ELMT 8 ASD OTW RAVENNA 01:06:54.13 28,70 01:06:54.13
58 ROSSI ALAN M M1 7 GRUPPO TNT 01:06:54.88 28,70 01:06:54.88
59 MAGALOTTI DAVIDE M M2-2 1 SPACCO ASD 01:07:04.63 28,63 01:07:04.63
60 TORTOLANI UGO M M3-2 2 POL. YOUNG LINE 01:07:07.62 28,61 01:07:07.62
61 ROSETTI FILIPPO M ELMT 9 180 BPM 01:07:08.63 28,60 01:07:08.63
62 NARDI MASSIMO M M4-2 2 180 BPM 01:07:09.39 28,59 01:07:09.39
63 CASTELLUCCI STEFANO M M4-2 3 180 BPM 01:07:09.59 28,59 01:07:09.59
64 ANCARANI ALESSIO M ELMT 10 TEAM PASSION FAENTINA 01:07:11.67 28,58 01:07:11.67
65 MAMBELLI MARCO M M2 12 ASD OTW RAVENNA 01:07:14.38 28,56 01:07:14.38
66 FERRIOLI DEVIS M M2-2 2 TEAM PASSION FAENTINA 01:07:15.88 28,55 01:07:15.88
67 MENGOZZI TERZO M M7 2 KTM FORTI E LIBERI 01:07:19.13 28,52 01:07:19.13
68 SPADONI ANDREA M M4 10 ASD LA PALESTRA LAGOSANTO 01:07:24.13 28,49 01:07:24.13
69 CAIBUGATTI GIANNI M M3-2 3 GRUPPO TNT 01:07:27.13 28,47 01:07:27.13
70 LIVERANI ALESSANDRO M M3-2 4 TEAM PASSION FAENTINA 01:07:36.37 28,40 01:07:36.37
71 IAMMARINO GIANLUCA M M3 10 TEAM ESSERE E MTBICIO 01:07:59.39 28,24 01:07:59.39
72 PAZZI LUCA M M5 8 KTM FORTI E LIBERI 01:08:00.64 28,24 01:08:00.64
73 SAVINO CARMINE M M4 11 TEAM PASSION FAENTINA 01:08:05.14 28,20 01:08:05.14
74 MONTANARI MAURO M M2-2 3 TEAM PASSION FAENTINA 01:08:10.89 28,17 01:08:10.89
75 CAVINA GIAMBATTISTA M M4 12 ASD IMOLA BIKE 01:08:17.13 28,12 01:08:17.13
76 LOMBARDI NICOLO M ELMT 11 180 BPM 01:08:18.88 28,11 01:08:18.88
77 CHIARADIA TULLIO M M2 13 180 BPM 01:08:33.39 28,01 01:08:33.39
78 BABINI GIOVANNI M M6 5 SC VELOCIRAPTOR 01:08:36.89 27,99 01:08:36.89
79 BALDO RAFFAELE M M4 13 TEAM PASSION FAENTINA 01:08:40.14 27,96 01:08:40.14
80 AMADUCCI ROBERTO M M6 6 180 BPM 01:08:42.89 27,95 01:08:42.89
81 MONTIRONI GIANCARLO M M7 3 ASD SAMBI TEAM 01:08:45.39 27,93 01:08:45.39
82 TEDALDI SAMUELE M M2 14 TEAM ZANETTI ASD 01:08:50.67 27,89 01:08:50.67
83 GASTALDI ELISA F MW1 1 TEAM PASSION FAENTINA 01:08:53.14 27,87 01:08:53.14
84 TAROZZI ROBERTO M M4-2 4 TEAM PASSION FAENTINA 01:08:56.64 27,85 01:08:56.64
85 RINALDINI PAOLO M M4-2 5 SCORPION BIKE MTB 01:08:58.62 27,84 01:08:58.62
86 RAVAIOLI MARZIO M M5 9 GRUPPO TNT 01:08:58.66 27,84 01:08:58.66
87 FRANCESCHINI ANDREA M M4 14 TEAM CINGOLANI - SPECIALIZED 01:09:06.12 27,79 01:09:06.12
88 COLASUONNO VINCENZO M M3 11 ASD SAMBI TEAM 01:09:22.64 27,68 01:09:22.64
89 TERZIARI ALBERTO M M5 10 POL. YOUNG LINE 01:09:36.39 27,59 01:09:36.39
90 ALTINI ANDREA M M2 15 KTM FORTI E LIBERI 01:09:41.39 27,55 01:09:41.39
91 CAVALLARI ARMANDO M M4 15 ASD LA PALESTRA LAGOSANTO 01:09:51.14 27,49 01:09:51.14
92 GAUDENZI GUGLIELMO M M6 7 ASCD VALLE DEL CONCA 01:09:54.50 27,47 01:09:54.50
93 PAVANI BARBARA F MW2 1 ASD IMOLA BIKE 01:09:55.38 27,46 01:09:55.38
94 SELVA FEDERICO M M2-2 4 SAN MARINO MTB TEAM 01:09:57.14 27,45 01:09:57.14
95 GALLEGATI PAOLO M M3 12 ASD SAMBI TEAM 01:10:11.50 27,36 01:10:11.50
96 CIGNANI ROMANO M M3-2 5 180 BPM 01:10:16.39 27,32 01:10:16.39
97 MASSARI MATTIA M ELMT 12 ASD MEDINOX 01:10:20.14 27,30 01:10:20.14
98 CAVIOLI DANIELE M M1 8 ASD LE SALINE NATURA E SPORT 01:10:27.50 27,25 01:10:27.50
99 CICOGNANI FABRIZIO M M1 9 180 BPM 01:10:46.39 27,13 01:10:46.39
100 PAZZINI GERARDO M M6 8 ASD POLISPORTIVA COSMOS 01:10:51.89 27,10 01:10:51.89
101 ZAGHINI MARZIO M M2-2 5 SPACCO ASD 01:10:53.64 27,09 01:10:53.64
102 BISERNA BRUNO M M4 16 POLISPORTIVA SAN VITTORE 01:10:54.40 27,08 01:10:54.40
103 GUERRA MIRKO M M1 10 SALIMBICI BIKE TEAM RUOTE 01:10:58.87 27,05 01:10:58.87
104 MERLARI MICHAEL M M1 11 GOOD BIKE AS RONCOFREDDESE 01:10:59.40 27,05 01:10:59.40
105 VERIDIANI ALESSANDRO M M3 13 ASD OTW RAVENNA 01:11:07.64 27,00 01:11:07.64
106 PIOVACCARI ANDREA M ELMT 13 180 BPM 01:11:12.14 26,97 01:11:12.14
107 PIANOSI MARCELLO M M4-2 6 ASD CESENA BIKE 01:11:20.65 26,92 01:11:20.65
108 ZANIBONI TIZIANO M M6 9 ASD CMA IMOLA 01:11:22.14 26,90 01:11:22.14
109 SCALA DAVID M M3 14 POLISPORTIVA SAN VITTORE 01:11:23.14 26,90 01:11:23.14
110 MESSINA GIUSEPPE M M6 10 BAMBANA BIKE 01:11:26.39 26,88 01:11:26.39
111 ZACCARELLI GIUSEPPE M M3 15 ASD RICCI CICLI 01:11:29.64 26,86 01:11:29.64
112 GENTILINI CRISTIANO M M3 16 ASD OTW RAVENNA 01:11:29.66 26,86 01:11:29.66
113 BARBERINI EMANUELE M M3-2 6 ASD MEDINOX 01:11:41.14 26,78 01:11:41.14
114 ZAPPI MATTEO M ELMT 14 POL. YOUNG LINE 01:11:46.67 26,75 01:11:46.67
115 CIMINIELLO CHRISTIAN M ELMT 15 ASD SAMBI TEAM 01:11:52.12 26,72 01:11:52.12
116 CASTELLARI CLAUDIO M M5 11 ASD CMA IMOLA 01:12:02.40 26,65 01:12:02.40
117 CARROLI GIAMPAOLO M M3 17 GS TORPADO SURFING SHOP SPORT PROMOTION 01:12:16.62 26,57 01:12:16.62
118 LOMBARDI TIZIANO M M7 4 GRUPPO TNT 01:12:26.90 26,51 01:12:26.90
119 CAPPELLINI MATTEO M M3 18 180 BPM 01:12:46.16 26,39 01:12:46.16
120 ACCIAI MAURIZIO M M6 11 GRUPPO TNT 01:12:49.90 26,37 01:12:49.90
121 SASDELLI MICHELE M M3-2 7 BAMBANA BIKE 01:12:59.40 26,31 01:12:59.40
122 MORIGI MATTEO M M1 12 TEAM TORPEDO BIKE 01:13:03.40 26,28 01:13:03.40
123 DI LEVA PIETRO M M5 12 BAMBANA BIKE 01:13:08.15 26,25 01:13:08.15
124 MAZZONI ROBERTO M M4 17 ASD LA PALESTRA LAGOSANTO 01:13:13.40 26,22 01:13:13.40
125 MASINI STEFANO M M5 13 ASD SBUBBIKERS 01:13:18.15 26,19 01:13:18.15
126 RAVAIOLI LORENZO M M4 18 ASD POL. GLORIE 01:13:29.63 26,13 01:13:29.63
127 BRUNALDI SIMONETTA F MW1 2 ASD PHONIX TEAM ITALIA 01:13:30.88 26,12 01:13:30.88
128 LUZI EMILIANO M M3 19 MTB CESENA 01:13:32.15 26,11 01:13:32.15
129 MINIELLO LEO M M1 13 TEAM BIKE COCIF.COM ASD 01:13:35.15 26,09 01:13:35.15
130 MASOTTI IURI M M1 14 TEAM PASSION FAENTINA 01:13:37.38 26,08 01:13:37.38
131 MACCHEROZZI MARTA F MW2 2 GRUPPO TNT 01:13:38.90 26,08 01:13:38.90
132 MAURO EMANUELE M ELMT 16 ASD TOSCO-ROMAGNOLA 01:14:11.40 25,88 01:14:11.40
133 MAZZINI MARCO M M3 20 BAMBANA BIKE 01:14:16.90 25,85 01:14:16.90
134 ANCARANI GIULIO M M5 14 180 BPM 01:14:30.90 25,77 01:14:30.90
135 BARBERINI STEFANO M M3-2 8 ASD MEDINOX 01:14:36.41 25,74 01:14:36.41
136 EVANGELISTI MATTIA M ELMT 17 GOOD BIKE AS RONCOFREDDESE 01:14:46.13 25,68 01:14:46.13
137 BARTOLONI GIANNI M M5 15 SAN MARINO MTB TEAM 01:14:47.66 25,67 01:14:47.66
138 GIAMPRETI PAOLA F MW1 3 GRUPPO TNT 01:14:49.41 25,66 01:14:49.41
139 FILIPPI GIACOMO M ELMT 18 180 BPM 01:14:51.65 25,65 01:14:51.65
140 TAURISANO ANGELO M M3 21 ASD LE SALINE NATURA E SPORT 01:14:52.38 25,65 01:14:52.38
141 GAVANELLI LORENZO M M2 16 POL. YOUNG LINE 01:15:03.51 25,58 01:15:03.51
142 CAVINA MARCO M M3 22 ASD DOROBIKE TEAM 01:15:07.40 25,56 01:15:07.40
143 BASSETTI MASSIMO M M6 12 180 BPM 01:15:20.41 25,49 01:15:20.41
144 MARCIS SALVATORE M M1 15 SALIMBICI BIKE TEAM RUOTE 01:15:39.16 25,38 01:15:39.16
145 MAVILLA PAOLO M M5 16 TEAM PASSION FAENTINA 01:15:42.91 25,36 01:15:42.91
146 RIGHETTI PIETRO M M6 13 BAMBANA BIKE 01:15:49.16 25,32 01:15:49.16
147 CAVULLA ANNARITA F MW2 3 ASD IMOLA BIKE 01:16:00.16 25,26 01:16:00.16
148 OLMI ALESSANDRO M M4 19 ASD GREEN DEVILS 01:16:06.91 25,23 01:16:06.91
149 CHILLO TANIA F MW2 4 ASD ONLYOFF DUE RUOTE 01:16:07.66 25,22 01:16:07.66
150 FERRI MAURO M M7 5 BAMBANA BIKE 01:16:24.63 25,13 01:16:24.63
151 VALBONESI EMANUELE M M2 17 180 BPM 01:16:28.16 25,11 01:16:28.16
152 ARLOTTI MAURIZIO M M5 17 TEAM TORPEDO BIKE 01:17:27.92 24,79 01:17:27.92
153 FAGGIOLI ANDREA M M5 18 ASD TEAM COMACO 01:17:30.66 24,77 01:17:30.66
154 GIULIANELLI MARIO M M7 6 TEAM MONDOBICI TECNOPLAST 01:17:48.13 24,68 01:17:48.13
155 CANGINI MARINO M M5 19 ASD TEAM COMACO 01:18:01.51 24,61 01:18:01.51
156 MARRA MAURIZIO M M1 16 GS CICLI MATTEONI FRW 01:18:03.66 24,60 01:18:03.66
157 GARAVINI DAVIDE M M5 20 180 BPM 01:18:11.16 24,56 01:18:11.16
158 MANTOVANI LUCA M M5 21 BAMBANA BIKE 01:18:12.17 24,55 01:18:12.17
159 BABINI STEFANO M M2-2 6 VITAMINA TEAM 01:18:22.15 24,50 01:18:22.15
160 RAVAIOLI GIANCARLO M M7 7 GRUPPO TNT 01:18:26.51 24,48 01:18:26.51
161 GUERRINI DANILO M ELMT 19 TEAM PASSION FAENTINA 01:19:07.84 24,27 01:19:07.84
162 BALDISSERRI PIETRO M M6 14 GS TORPADO SURFING SHOP SPORT PROMOTION 01:19:08.89 24,26 01:19:08.89
163 BARAVELLI IVAN M ELMT 20 GRUPPO TNT 01:19:16.16 24,22 01:19:16.16
164 STURNIOLO FRANCESCO M M3 23 ASD OTW RAVENNA 01:19:18.41 24,21 01:19:18.41
165 ROSSETTI SIMONE M M2 18 NEW MOTOR BIKE 01:19:38.52 24,11 01:19:38.52
166 BELTRAMINI FILIPPO M ELMT 21 TRIAL BIKE LUGO 01:19:56.91 24,02 01:19:56.91
167 BIZZI PATRIZIO M M5 22 ASD LA PALESTRA LAGOSANTO 01:20:12.14 23,94 01:20:12.14
168 BISSIONI LORENZO M M6 15 PEDALE CESENATE CICLI NERI 01:20:16.16 23,92 01:20:16.16
169 MARCHESINI ARIANNA F MW1 4 TEAM FERRARA BIKE 01:21:23.55 23,59 01:21:23.55
170 RECA ANDREA M M4 20 ASD LE SALINE NATURA E SPORT 01:21:36.92 23,53 01:21:36.92
171 FABBRICA ANDREA M M1 17 SPACCO ASD 01:22:45.66 23,20 01:22:45.66
172 VIGGIANI FILIPPO M ELMT 22 GS CICLI EFFE EFFE 01:22:53.17 23,17 01:22:53.17
173 BALDUCCI ANTONELLA F MW2 5 SC VELOCIRAPTOR 01:23:15.17 23,06 01:23:15.17
174 GASTALDI CHIARA F MW1 5 ROMAGNA BIKE GRANDI EVENTI 01:25:06.17 22,56 01:25:06.17
175 GAGLIANO CLARA F MW2 6 BAMBANA BIKE 01:26:53.93 22,10 01:26:53.93
176 MAGALOTTI GIANLUCA M M4 21 SAN MARINO MTB TEAM 01:27:51.43 21,86 01:27:51.43
177 SILVANI ALEX M ELMT 23 TEAM PASSION FAENTINA 01:28:07.65 21,79 01:28:07.65
178 CASALBONI ALESSANDRO M ELMT 24 TEAM TORPEDO BIKE 01:28:38.68 21,66 01:28:38.68
179 CHIOCCIOLINI DANIELA F MW2 7 180 BPM 01:28:42.18 21,65 01:28:42.18
180 FIORAVANTI DANIELE M M5 23 FREE BIKE CESENA 01:30:00.43 21,33 01:30:00.43
181 COSTANTINI DENIS M M2 19 ASD OTW RAVENNA 01:32:07.94 20,84 01:32:07.94
182 BALDINI FABIO M ELMT 25 ASD GRUPPO SPORTIVO ESERCITO 01:34:37.45 20,29 01:34:37.45
183 DI BAGGIO BARBARA LETIZIA F MW1 6 INDIVIDUALE 01:44:39.18 18,35 01:44:39.18
184 SELLERI STEFANO M M5 24 ASD GREEN DEVILS 01:44:41.48 18,34 01:44:41.48
185 CANDUCCI THOMAS M JUN 1 ASD LE SALINE NATURA E SPORT 01:47:31.73 17,86 01:47:31.73
186 FRANZONI TELEMACO M M5 25 APD DEPORTIVO LA CURNAZA 01:48:05.23 17,76 01:48:05.23

CORTO - 15.0 Km

Pos Atleta Sesso Cat PosC Team Tempo Media RTime
1 TONTI ANDREA M ALL 1 ASD LE SALINE NATURA E SPORT 00:41:30.39 21,69 00:41:30.39
2 TOZZI MATTIA M ALL 2 ASD LE SALINE NATURA E SPORT 00:45:32.41 19,77 00:45:32.41
3 GAMBERI ELIA M ALL 3 ASD TOSCO-ROMAGNOLA 00:46:04.41 19,54 00:46:04.41
4 PRUCCOLI ANDREA M ALL 4 ASD LE SALINE NATURA E SPORT 00:49:05.41 18,34 00:49:05.41
5 BANDINI ALESSANDRO M ALL 5 180 BPM 00:50:59.41 17,65 00:50:59.41
6 MORRI ALESSIA F ALL 6 ASD LE SALINE NATURA E SPORT 00:55:43.18 16,15 00:55:43.18
7 MENGOZZI MARIA F ALL 7 ASD LE SALINE NATURA E SPORT 00:56:07.53 16,04 00:56:07.53
8 SERAFINI LORENZO M ES 1 ASD LE SALINE NATURA E SPORT 00:57:57.18 15,53 00:57:57.18
9 FABBRI GIOVANNI M ALL 8 ASD LE SALINE NATURA E SPORT 00:59:53.43 15,03 00:59:53.43
10 GIOVAGNOLI NICOLAS M ALL 9 ASD LE SALINE NATURA E SPORT 01:06:32.45 13,53 01:06:32.45
11 SISTRI PIETRO M ES 2 ASD LE SALINE NATURA E SPORT 01:07:39.71 13,30 01:07:39.71
12 MAROTTA VINCENZO M ALL 10 ASD LE SALINE NATURA E SPORT 01:08:34.96 13,13 01:08:34.96
13 CECCARONI MATTEO M ES 3 ASD LE SALINE NATURA E SPORT 01:09:09.57 13,02 01:09:09.57